createdAt,value
2019-04-14T00:01:15.111Z,100674.63
2019-04-14T00:02:33.752Z,100672.70
2019-04-14T00:03:39.815Z,100677.80
2019-04-14T00:04:46.766Z,100673.78
2019-04-14T00:05:53.862Z,100671.14
2019-04-14T00:06:59.154Z,100675.36
2019-04-14T00:08:04.666Z,100671.20
2019-04-14T00:09:12.008Z,100659.64
2019-04-14T00:10:16.580Z,100670.20
2019-04-14T00:11:21.245Z,100664.28
2019-04-14T00:12:25.509Z,100659.34
2019-04-14T00:13:30.651Z,100659.64
2019-04-14T00:14:35.871Z,100661.81
2019-04-14T00:15:44.844Z,100658.19
2019-04-14T00:16:46.742Z,100659.28
2019-04-14T00:17:51.040Z,100658.44
2019-04-14T00:18:55.518Z,100659.40
2019-04-14T00:20:00.895Z,100655.45
2019-04-14T00:21:05.181Z,100654.45
2019-04-14T00:22:11.562Z,100654.81
2019-04-14T00:23:15.813Z,100652.16
2019-04-14T00:24:20.683Z,100653.06
2019-04-14T00:25:26.154Z,100645.82
2019-04-14T00:26:33.539Z,100646.91
2019-04-14T00:27:38.861Z,100644.13
2019-04-14T00:28:43.103Z,100640.91
2019-04-14T00:29:47.928Z,100647.24
2019-04-14T00:30:53.328Z,100648.03
2019-04-14T00:31:58.802Z,100634.63
2019-04-14T00:33:16.982Z,100650.20
2019-04-14T00:34:33.116Z,100644.10
2019-04-14T00:35:42.764Z,100642.56
2019-04-14T00:36:48.616Z,100640.39
2019-04-14T00:38:06.357Z,100637.08
2019-04-14T00:39:29.433Z,100643.11
2019-04-14T00:40:38.925Z,100640.02
2019-04-14T00:41:51.833Z,100645.27
2019-04-14T00:42:55.944Z,100638.64
2019-04-14T00:44:18.906Z,100634.27
2019-04-14T00:45:33.926Z,100640.66
2019-04-14T00:46:35.747Z,100634.27
2019-04-14T00:47:56.741Z,100640.97
2019-04-14T00:48:51.786Z,100636.31
2019-04-14T00:49:57.181Z,100646.73
2019-04-14T00:51:02.676Z,100641.17
2019-04-14T00:52:07.939Z,100634.15
2019-04-14T00:53:12.248Z,100645.04
2019-04-14T00:54:17.496Z,100637.47
2019-04-14T00:55:22.588Z,100639.09
2019-04-14T00:56:27.878Z,100639.88
2019-04-14T00:57:33.154Z,100642.73
2019-04-14T00:58:37.505Z,100636.34
2019-04-14T00:59:41.947Z,100642.80
2019-04-14T01:00:47.345Z,100637.13
2019-04-14T01:01:52.730Z,100636.05
2019-04-14T01:02:57.978Z,100642.03
2019-04-14T01:04:03.471Z,100642.63
2019-04-14T01:05:08.816Z,100637.00
2019-04-14T01:06:14.212Z,100633.75
2019-04-14T01:07:19.527Z,100634.66
2019-04-14T01:08:24.844Z,100639.36
2019-04-14T01:09:30.433Z,100636.64
2019-04-14T01:10:34.715Z,100637.05
2019-04-14T01:11:40.008Z,100640.66
2019-04-14T01:12:45.302Z,100641.02
2019-04-14T01:13:50.726Z,100635.33
2019-04-14T01:14:56.005Z,100643.71
2019-04-14T01:16:07.038Z,100639.34
2019-04-14T01:17:06.950Z,100632.22
2019-04-14T01:18:12.449Z,100627.69
2019-04-14T01:19:17.736Z,100636.47
2019-04-14T01:20:23.157Z,100635.53
2019-04-14T01:21:28.447Z,100632.01
2019-04-14T01:22:33.560Z,100632.31
2019-04-14T01:23:39.194Z,100635.38
2019-04-14T01:24:44.600Z,100638.16
2019-04-14T01:25:49.950Z,100637.77
2019-04-14T01:26:55.023Z,100636.71
2019-04-14T01:28:00.306Z,100640.33
2019-04-14T01:29:05.839Z,100645.64
2019-04-14T01:30:11.080Z,100640.39
2019-04-14T01:31:16.582Z,100639.70
2019-04-14T01:32:21.912Z,100644.19
2019-04-14T01:33:27.266Z,100641.59
2019-04-14T01:34:32.437Z,100639.42
2019-04-14T01:35:37.849Z,100642.44
2019-04-14T01:36:43.172Z,100641.59
2019-04-14T01:37:48.542Z,100640.20
2019-04-14T01:38:53.597Z,100644.97
2019-04-14T01:39:58.846Z,100644.58
2019-04-14T01:41:04.362Z,100638.80
2019-04-14T01:42:09.501Z,100640.18
2019-04-14T01:43:14.618Z,100644.82
2019-04-14T01:44:19.864Z,100641.50
2019-04-14T01:45:25.307Z,100641.27
2019-04-14T01:46:32.622Z,100635.53
2019-04-14T01:47:35.692Z,100645.04
2019-04-14T01:48:40.838Z,100639.25
2019-04-14T01:49:46.536Z,100642.33
2019-04-14T01:51:09.152Z,100647.13
2019-04-14T01:52:16.768Z,100642.11
2019-04-14T01:53:39.999Z,100645.73
2019-04-14T01:54:52.011Z,100644.19
2019-04-14T01:56:03.672Z,100647.91
2019-04-14T01:57:19.968Z,100640.50
2019-04-14T01:58:31.868Z,100646.53
2019-04-14T01:59:37.469Z,100648.64
2019-04-14T02:00:49.338Z,100643.23
2019-04-14T02:01:58.691Z,100655.42
2019-04-14T02:03:04.133Z,100650.23
2019-04-14T02:04:09.441Z,100645.09
2019-04-14T02:05:14.605Z,100644.24
2019-04-14T02:06:20.080Z,100645.45
2019-04-14T02:07:25.530Z,100642.20
2019-04-14T02:08:30.778Z,100644.52
2019-04-14T02:09:35.770Z,100635.02
2019-04-14T02:10:41.257Z,100643.77
2019-04-14T02:11:46.636Z,100649.79
2019-04-14T02:12:51.787Z,100641.53
2019-04-14T02:13:57.208Z,100645.09
2019-04-14T02:15:02.861Z,100647.38
2019-04-14T02:16:21.070Z,100646.84
2019-04-14T02:17:13.299Z,100646.59
2019-04-14T02:18:18.560Z,100650.52
2019-04-14T02:19:24.079Z,100649.44
2019-04-14T02:20:29.617Z,100653.91
2019-04-14T02:21:34.551Z,100651.36
2019-04-14T02:22:39.800Z,100643.58
2019-04-14T02:23:45.317Z,100640.98
2019-04-14T02:24:50.351Z,100645.45
2019-04-14T02:25:55.653Z,100641.29
2019-04-14T02:27:01.166Z,100645.93
2019-04-14T02:28:06.837Z,100644.00
2019-04-14T02:29:12.159Z,100641.89
2019-04-14T02:30:22.285Z,100644.97
2019-04-14T02:31:46.760Z,100643.88
2019-04-14T02:32:57.346Z,100650.82
2019-04-14T02:34:21.645Z,100645.27
2019-04-14T02:37:19.661Z,100643.44
2019-04-14T02:38:36.054Z,100643.73
2019-04-14T02:39:43.287Z,100642.95
2019-04-14T02:41:56.769Z,100648.29
2019-04-14T02:43:04.057Z,100645.69
2019-04-14T02:44:14.744Z,100652.56
2019-04-14T02:45:08.908Z,100648.10
2019-04-14T02:46:05.197Z,100644.55
2019-04-14T02:47:36.361Z,100646.72
2019-04-14T02:49:30.964Z,100638.21
2019-04-14T02:50:30.627Z,100644.37
2019-04-14T02:52:53.651Z,100643.46
2019-04-14T02:54:04.898Z,100645.45
2019-04-14T02:54:58.788Z,100646.84
2019-04-14T02:57:12.487Z,100647.63
2019-04-14T02:58:20.231Z,100650.17
2019-04-14T02:59:22.373Z,100650.23
2019-04-14T03:00:37.203Z,100648.64
2019-04-14T03:02:44.361Z,100659.70
2019-04-14T03:03:46.827Z,100653.98
2019-04-14T03:04:50.570Z,100651.81
2019-04-14T03:06:01.255Z,100650.59
2019-04-14T03:07:04.988Z,100656.69
2019-04-14T03:08:11.436Z,100652.34
2019-04-14T03:09:19.137Z,100654.03
2019-04-14T03:10:28.129Z,100656.73
2019-04-14T03:12:36.123Z,100657.33
2019-04-14T03:14:47.964Z,100654.25
2019-04-14T03:17:14.675Z,100650.94
2019-04-14T03:19:49.606Z,100656.07
2019-04-14T03:21:04.349Z,100649.91
2019-04-14T03:22:26.137Z,100656.48
2019-04-14T03:23:30.852Z,100649.33
2019-04-14T03:24:35.888Z,100645.95
2019-04-14T03:25:55.319Z,100646.80
2019-04-14T03:27:00.048Z,100648.19
2019-04-14T03:28:27.865Z,100634.73
2019-04-14T03:29:40.793Z,100649.63
2019-04-14T03:31:25.338Z,100643.23
2019-04-14T03:36:44.246Z,100637.06
2019-04-14T03:37:39.609Z,100639.12
2019-04-14T03:39:45.969Z,100638.03
2019-04-14T03:40:46.385Z,100639.81
2019-04-14T03:41:45.631Z,100640.56
2019-04-14T03:43:03.944Z,100636.80
2019-04-14T03:43:54.583Z,100638.48
2019-04-14T03:45:03.656Z,100639.63
2019-04-14T03:47:22.080Z,100641.92
2019-04-14T03:49:31.662Z,100649.56
2019-04-14T03:50:39.362Z,100645.73
2019-04-14T03:51:45.089Z,100644.34
2019-04-14T03:53:53.425Z,100646.94
2019-04-14T03:54:51.025Z,100646.64
2019-04-14T03:55:55.318Z,100652.19
2019-04-14T03:56:55.736Z,100641.93
2019-04-14T03:58:00.578Z,100641.03
2019-04-14T03:59:06.279Z,100642.48
2019-04-14T04:00:11.741Z,100641.88
2019-04-14T04:01:17.168Z,100643.50
2019-04-14T04:02:22.632Z,100641.57
2019-04-14T04:03:28.183Z,100641.57
2019-04-14T04:04:33.761Z,100641.88
2019-04-14T04:05:39.071Z,100645.80
2019-04-14T04:06:44.255Z,100644.16
2019-04-14T04:07:49.519Z,100646.94
2019-04-14T04:08:53.883Z,100646.64
2019-04-14T04:10:00.510Z,100642.96
2019-04-14T04:11:06.123Z,100646.88
2019-04-14T04:12:11.685Z,100643.27
2019-04-14T04:13:17.146Z,100650.75
2019-04-14T04:14:22.375Z,100650.95
2019-04-14T04:15:27.802Z,100652.58
2019-04-14T04:16:37.638Z,100658.13
2019-04-14T04:17:43.551Z,100650.34
2019-04-14T04:18:57.955Z,100653.42
2019-04-14T04:20:02.584Z,100650.66
2019-04-14T04:21:16.257Z,100659.28
2019-04-14T04:22:39.010Z,100656.20
2019-04-14T04:23:48.957Z,100656.50
2019-04-14T04:25:11.494Z,100649.27
2019-04-14T04:26:34.434Z,100656.44
2019-04-14T04:27:56.911Z,100655.20
2019-04-14T04:29:02.898Z,100658.77
2019-04-14T04:30:18.688Z,100657.92
2019-04-14T04:31:24.748Z,100653.21
2019-04-14T04:32:31.893Z,100655.44
2019-04-14T04:33:43.731Z,100645.52
2019-04-14T04:34:55.591Z,100656.05
2019-04-14T04:36:05.268Z,100661.78
2019-04-14T04:37:17.186Z,100655.14
2019-04-14T04:38:23.159Z,100656.83
2019-04-14T04:39:30.163Z,100656.53
2019-04-14T04:40:35.379Z,100656.23
2019-04-14T04:41:41.304Z,100651.77
2019-04-14T04:42:45.826Z,100660.30
2019-04-14T04:43:50.045Z,100660.30
2019-04-14T04:44:55.341Z,100660.30
2019-04-14T04:46:00.602Z,100659.78
2019-04-14T04:47:05.680Z,100663.95
2019-04-14T04:48:10.913Z,100664.70
2019-04-14T04:49:21.153Z,100666.08
2019-04-14T04:50:21.435Z,100672.18
2019-04-14T04:51:26.882Z,100677.42
2019-04-14T04:52:32.251Z,100685.20
2019-04-14T04:53:37.619Z,100683.22
2019-04-14T04:54:42.845Z,100683.22
2019-04-14T04:55:48.110Z,100687.92
2019-04-14T04:56:53.670Z,100684.54
2019-04-14T04:57:59.164Z,100682.00
2019-04-14T04:59:05.464Z,100691.41
2019-04-14T05:00:11.297Z,100683.47
2019-04-14T05:01:16.739Z,100689.62
2019-04-14T05:02:22.105Z,100689.56
2019-04-14T05:03:27.587Z,100694.56
2019-04-14T05:04:32.960Z,100690.41
2019-04-14T05:06:08.978Z,100694.03
2019-04-14T05:07:14.390Z,100686.30
2019-04-14T05:08:19.543Z,100686.30
2019-04-14T05:09:28.136Z,100683.33
2019-04-14T05:10:34.987Z,100694.97
2019-04-14T05:11:40.888Z,100693.58
2019-04-14T05:12:47.864Z,100697.74
2019-04-14T05:13:55.357Z,100696.89
2019-04-14T05:15:03.369Z,100699.13
2019-04-14T05:16:08.885Z,100694.63
2019-04-14T05:17:14.859Z,100694.97
2019-04-14T05:18:20.020Z,100698.05
2019-04-14T05:19:30.367Z,100693.64
2019-04-14T05:20:31.292Z,100694.80
2019-04-14T05:21:36.576Z,100692.86
2019-04-14T05:22:41.853Z,100693.70
2019-04-14T05:23:47.302Z,100694.01
2019-04-14T05:24:52.804Z,100690.16
2019-04-14T05:25:58.136Z,100690.16
2019-04-14T05:27:03.537Z,100695.70
2019-04-14T05:28:09.015Z,100701.02
2019-04-14T05:29:14.469Z,100696.48
2019-04-14T05:30:19.700Z,100700.64
2019-04-14T05:31:27.322Z,100707.04
2019-04-14T05:32:30.519Z,100703.42
2019-04-14T05:33:35.927Z,100704.80
2019-04-14T05:34:43.541Z,100703.66
2019-04-14T05:35:50.995Z,100706.98
2019-04-14T05:36:56.361Z,100711.92
2019-04-14T05:38:01.751Z,100704.34
2019-04-14T05:39:06.868Z,100713.75
2019-04-14T05:40:12.325Z,100705.13
2019-04-14T05:41:17.903Z,100705.73
2019-04-14T05:42:25.516Z,100710.13
2019-04-14T05:43:38.725Z,100704.34
2019-04-14T05:44:34.085Z,100707.12
2019-04-14T05:45:39.424Z,100706.91
2019-04-14T05:46:44.689Z,100709.52
2019-04-14T05:47:50.558Z,100713.98
2019-04-14T05:48:55.763Z,100712.05
2019-04-14T05:50:00.917Z,100722.98
2019-04-14T05:51:06.425Z,100718.98
2019-04-14T05:52:11.956Z,100717.90
2019-04-14T05:53:17.532Z,100719.83
2019-04-14T05:54:23.163Z,100716.77
2019-04-14T05:55:28.460Z,100719.60
2019-04-14T05:56:35.834Z,100718.86
2019-04-14T05:57:39.496Z,100721.27
2019-04-14T05:58:44.745Z,100713.48
2019-04-14T05:59:50.535Z,100717.95
2019-04-14T06:00:56.351Z,100715.48
2019-04-14T06:02:04.791Z,100720.55
2019-04-14T06:03:10.194Z,100719.16
2019-04-14T06:04:15.612Z,100715.92
2019-04-14T06:05:21.106Z,100713.92
2019-04-14T06:06:25.493Z,100721.94
2019-04-14T06:07:29.693Z,100723.27
2019-04-14T06:08:35.541Z,100720.55
2019-04-14T06:09:39.880Z,100721.77
2019-04-14T06:10:44.079Z,100705.30
2019-04-14T06:11:48.424Z,100725.55
2019-04-14T06:12:52.618Z,100720.14
2019-04-14T06:13:56.887Z,100727.48
2019-04-14T06:15:01.240Z,100722.48
2019-04-14T06:16:05.571Z,100729.23
2019-04-14T06:17:09.778Z,100728.70
2019-04-14T06:18:13.971Z,100735.77
2019-04-14T06:19:19.849Z,100735.08
2019-04-14T06:20:24.189Z,100739.48
2019-04-14T06:21:28.391Z,100741.78
2019-04-14T06:22:32.622Z,100742.09
2019-04-14T06:23:36.818Z,100740.16
2019-04-14T06:24:41.881Z,100744.09
2019-04-14T06:25:46.069Z,100746.33
2019-04-14T06:26:50.260Z,100738.87
2019-04-14T06:27:54.512Z,100742.26
2019-04-14T06:28:58.764Z,100740.94
2019-04-14T06:30:05.190Z,100720.98
2019-04-14T06:31:16.844Z,100733.47
2019-04-14T06:32:22.685Z,100736.85
2019-04-14T06:33:31.079Z,100742.80
2019-04-14T06:34:36.911Z,100736.77
2019-04-14T06:35:42.769Z,100731.92
2019-04-14T06:36:48.601Z,100737.34
2019-04-14T06:37:57.160Z,100737.40
2019-04-14T06:39:12.052Z,100735.53
2019-04-14T06:40:16.391Z,100731.97
2019-04-14T06:41:20.823Z,100736.44
2019-04-14T06:42:26.659Z,100737.77
2019-04-14T06:43:30.895Z,100733.73
2019-04-14T06:44:35.226Z,100737.20
2019-04-14T06:45:39.501Z,100734.19
2019-04-14T06:46:43.702Z,100734.55
2019-04-14T06:47:47.979Z,100731.93
2019-04-14T06:48:53.158Z,100728.06
2019-04-14T06:49:57.349Z,100730.00
2019-04-14T06:51:01.709Z,100724.16
2019-04-14T06:52:05.918Z,100729.21
2019-04-14T06:53:10.253Z,100725.34
2019-04-14T06:54:14.475Z,100725.11
2019-04-14T06:55:18.739Z,100732.89
2019-04-14T06:56:22.933Z,100726.25
2019-04-14T06:57:28.782Z,100722.81
2019-04-14T06:58:33.130Z,100731.30
2019-04-14T06:59:37.353Z,100728.30
2019-04-14T07:00:41.655Z,100735.87
2019-04-14T07:01:46.032Z,100733.70
2019-04-14T07:02:50.226Z,100733.46
2019-04-14T07:03:54.431Z,100741.11
2019-04-14T07:04:58.628Z,100739.30
2019-04-14T07:06:02.935Z,100738.27
2019-04-14T07:07:07.247Z,100746.75
2019-04-14T07:08:11.591Z,100738.48
2019-04-14T07:09:15.873Z,100742.41
2019-04-14T07:10:20.276Z,100741.50
2019-04-14T07:11:24.781Z,100745.42
2019-04-14T07:12:28.976Z,100748.17
2019-04-14T07:13:33.223Z,100749.37
2019-04-14T07:14:37.436Z,100747.98
2019-04-14T07:15:41.695Z,100745.94
2019-04-14T07:16:46.121Z,100757.95
2019-04-14T07:17:50.319Z,100754.03
2019-04-14T07:18:54.563Z,100754.48
2019-04-14T07:20:02.266Z,100752.91
2019-04-14T07:21:04.911Z,100751.34
2019-04-14T07:22:09.148Z,100739.69
2019-04-14T07:23:14.409Z,100748.23
2019-04-14T07:24:18.743Z,100749.31
2019-04-14T07:25:22.940Z,100755.42
2019-04-14T07:26:27.203Z,100755.90
2019-04-14T07:27:31.485Z,100743.91
2019-04-14T07:28:36.460Z,100747.20
2019-04-14T07:29:42.296Z,100750.97
2019-04-14T07:30:57.353Z,100756.89
2019-04-14T07:32:12.416Z,100757.25
2019-04-14T07:33:24.022Z,100764.80
2019-04-14T07:34:45.249Z,100762.80
2019-04-14T07:35:57.266Z,100758.03
2019-04-14T07:37:12.126Z,100758.03
2019-04-14T07:38:18.006Z,100756.59
2019-04-14T07:39:36.843Z,100758.82
2019-04-14T07:40:42.680Z,100758.63
2019-04-14T07:41:54.641Z,100759.13
2019-04-14T07:43:00.522Z,100764.44
2019-04-14T07:44:06.328Z,100762.50
2019-04-14T07:45:21.231Z,100764.25
2019-04-14T07:46:42.043Z,100759.53
2019-04-14T07:47:50.375Z,100756.45
2019-04-14T07:49:08.160Z,100759.30
2019-04-14T07:50:17.230Z,100757.91
2019-04-14T07:51:23.068Z,100759.91
2019-04-14T07:52:28.908Z,100767.22
2019-04-14T07:53:34.813Z,100761.96
2019-04-14T07:54:43.451Z,100768.52
2019-04-14T07:55:49.375Z,100764.45
2019-04-14T07:57:04.113Z,100764.45
2019-04-14T07:58:16.008Z,100761.38
2019-04-14T07:59:24.354Z,100760.64
2019-04-14T08:00:48.473Z,100767.19
2019-04-14T08:02:09.096Z,100763.63
2019-04-14T08:03:17.046Z,100763.13
2019-04-14T08:04:22.808Z,100751.71
2019-04-14T08:05:34.433Z,100757.02
2019-04-14T08:06:38.701Z,100759.62
2019-04-14T08:07:44.068Z,100759.21
2019-04-14T08:08:48.395Z,100753.75
2019-04-14T08:09:52.594Z,100762.10
2019-04-14T08:10:57.226Z,100758.37
2019-04-14T08:12:01.452Z,100754.59
2019-04-14T08:13:05.653Z,100756.42
2019-04-14T08:14:11.058Z,100755.44
2019-04-14T08:15:15.287Z,100754.94
2019-04-14T08:16:19.555Z,100753.13
2019-04-14T08:17:23.810Z,100753.78
2019-04-14T08:18:28.018Z,100751.38
2019-04-14T08:19:32.416Z,100756.19
2019-04-14T08:20:36.612Z,100756.84
2019-04-14T08:21:40.815Z,100762.28
2019-04-14T08:22:45.050Z,100754.77
2019-04-14T08:23:49.226Z,100760.48
2019-04-14T08:24:53.459Z,100769.29
2019-04-14T08:25:57.665Z,100757.70
2019-04-14T08:27:01.876Z,100760.36
2019-04-14T08:28:06.079Z,100761.28
2019-04-14T08:29:10.281Z,100754.45
2019-04-14T08:30:14.911Z,100756.77
2019-04-14T08:31:19.133Z,100762.38
2019-04-14T08:32:23.340Z,100751.61
2019-04-14T08:33:29.226Z,100755.07
2019-04-14T08:34:34.584Z,100757.17
2019-04-14T08:35:38.866Z,100750.83
2019-04-14T08:36:43.135Z,100759.34
2019-04-14T08:37:47.791Z,100754.44
2019-04-14T08:38:51.959Z,100751.21
2019-04-14T08:39:56.228Z,100757.67
2019-04-14T08:41:00.473Z,100749.45
2019-04-14T08:42:22.624Z,100755.69
2019-04-14T08:43:43.847Z,100753.52
2019-04-14T08:44:49.691Z,100751.72
2019-04-14T08:45:55.532Z,100750.45
2019-04-14T08:47:01.487Z,100750.02
2019-04-14T08:48:10.384Z,100754.30
2019-04-14T08:49:25.310Z,100745.17
2019-04-14T08:50:39.566Z,100747.25
2019-04-14T08:51:50.366Z,100748.83
2019-04-14T08:52:56.229Z,100750.67
2019-04-14T08:54:10.685Z,100754.95
2019-04-14T08:55:16.636Z,100752.19
2019-04-14T08:56:28.264Z,100747.55
2019-04-14T08:57:39.995Z,100751.52
2019-04-14T08:58:52.032Z,100748.80
2019-04-14T09:00:00.744Z,100753.36
2019-04-14T09:01:15.638Z,100750.36
2019-04-14T09:02:27.242Z,100748.41
2019-04-14T09:03:49.373Z,100748.17
2019-04-14T09:04:55.225Z,100742.34
2019-04-14T09:06:17.222Z,100751.09
2019-04-14T09:07:23.095Z,100750.88
2019-04-14T09:08:34.792Z,100750.40
2019-04-14T09:09:43.383Z,100750.17
2019-04-14T09:11:01.347Z,100751.13
2019-04-14T09:12:15.495Z,100753.45
2019-04-14T09:13:13.173Z,100761.06
2019-04-14T09:14:17.391Z,100753.22
2019-04-14T09:15:22.082Z,100752.39
2019-04-14T09:16:26.288Z,100756.02
2019-04-14T09:17:30.873Z,100759.95
2019-04-14T09:18:35.095Z,100754.72
2019-04-14T09:19:39.296Z,100749.77
2019-04-14T09:20:52.236Z,100750.09
2019-04-14T09:21:49.401Z,100757.96
2019-04-14T09:22:53.612Z,100752.44
2019-04-14T09:23:58.294Z,100750.20
2019-04-14T09:25:02.532Z,100750.77
2019-04-14T09:26:06.879Z,100747.11
2019-04-14T09:27:13.834Z,100754.12
2019-04-14T09:28:19.972Z,100752.27
2019-04-14T09:29:24.253Z,100754.55
2019-04-14T09:30:28.523Z,100753.14
2019-04-14T09:31:32.977Z,100762.41
2019-04-14T09:32:37.175Z,100758.27
2019-04-14T09:33:41.397Z,100757.73
2019-04-14T09:34:45.686Z,100753.83
2019-04-14T09:35:49.870Z,100756.13
2019-04-14T09:36:54.071Z,100756.13
2019-04-14T09:37:58.272Z,100761.45
2019-04-14T09:39:02.666Z,100758.94
2019-04-14T09:40:08.427Z,100756.70
2019-04-14T09:41:12.691Z,100762.91
2019-04-14T09:42:17.133Z,100759.84
2019-04-14T09:43:21.322Z,100764.34
2019-04-14T09:44:25.650Z,100766.30
2019-04-14T09:45:30.123Z,100768.27
2019-04-14T09:46:34.322Z,100767.15
2019-04-14T09:47:38.529Z,100758.25
2019-04-14T09:48:43.117Z,100760.22
2019-04-14T09:49:47.428Z,100758.27
2019-04-14T09:51:03.934Z,100758.56
2019-04-14T09:51:59.146Z,100753.28
2019-04-14T09:53:03.530Z,100748.80
2019-04-14T09:54:07.760Z,100754.14
2019-04-14T09:55:12.123Z,100756.39
2019-04-14T09:56:16.373Z,100764.02
2019-04-14T09:57:20.613Z,100758.42
2019-04-14T09:58:25.042Z,100760.70
2019-04-14T09:59:29.272Z,100757.91
2019-04-14T10:00:35.440Z,100759.59
2019-04-14T10:01:39.801Z,100758.14
2019-04-14T10:02:44.016Z,100758.69
2019-04-14T10:03:48.244Z,100761.27
2019-04-14T10:04:52.456Z,100756.52
2019-04-14T10:05:56.671Z,100756.00
2019-04-14T10:07:02.108Z,100759.65
2019-04-14T10:08:06.541Z,100757.45
2019-04-14T10:09:10.736Z,100767.55
2019-04-14T10:10:15.044Z,100759.13
2019-04-14T10:11:19.996Z,100756.65
2019-04-14T10:12:24.333Z,100750.23
2019-04-14T10:13:28.592Z,100760.65
2019-04-14T10:14:32.879Z,100748.28
2019-04-14T10:15:37.064Z,100754.76
2019-04-14T10:16:41.360Z,100759.27
2019-04-14T10:17:45.580Z,100762.95
2019-04-14T10:18:50.873Z,100754.53
2019-04-14T10:19:55.091Z,100755.67
2019-04-14T10:20:59.293Z,100755.67
2019-04-14T10:22:04.308Z,100758.77
2019-04-14T10:23:08.561Z,100757.62
2019-04-14T10:24:12.732Z,100757.64
2019-04-14T10:25:16.998Z,100756.52
2019-04-14T10:26:22.574Z,100755.66
2019-04-14T10:27:26.768Z,100757.91
2019-04-14T10:28:31.062Z,100751.48
2019-04-14T10:29:35.421Z,100762.44
2019-04-14T10:30:39.723Z,100756.52
2019-04-14T10:31:43.925Z,100759.88
2019-04-14T10:32:48.519Z,100764.64
2019-04-14T10:33:52.764Z,100758.15
2019-04-14T10:34:56.959Z,100755.33
2019-04-14T10:36:01.155Z,100755.58
2019-04-14T10:37:05.826Z,100754.12
2019-04-14T10:38:10.045Z,100756.09
2019-04-14T10:39:14.267Z,100756.06
2019-04-14T10:40:18.600Z,100750.47
2019-04-14T10:41:22.812Z,100754.69
2019-04-14T10:42:27.024Z,100757.50
2019-04-14T10:43:31.305Z,100753.30
2019-04-14T10:44:35.550Z,100749.95
2019-04-14T10:45:39.842Z,100750.48
2019-04-14T10:46:44.049Z,100754.42
2019-04-14T10:47:48.275Z,100752.99
2019-04-14T10:48:52.470Z,100745.38
2019-04-14T10:49:59.331Z,100746.73
2019-04-14T10:51:04.525Z,100746.98
2019-04-14T10:52:10.016Z,100745.22
2019-04-14T10:53:14.218Z,100746.58
2019-04-14T10:54:18.630Z,100744.26
2019-04-14T10:55:22.944Z,100739.36
2019-04-14T10:56:27.254Z,100745.48
2019-04-14T10:57:31.495Z,100746.81
2019-04-14T10:58:35.766Z,100740.75
2019-04-14T10:59:40.068Z,100742.52
2019-04-14T11:00:44.376Z,100740.21
2019-04-14T11:01:48.661Z,100736.52
2019-04-14T11:02:52.966Z,100741.86
2019-04-14T11:03:57.167Z,100737.30
2019-04-14T11:05:01.456Z,100730.25
2019-04-14T11:06:23.509Z,100731.39
2019-04-14T11:07:29.347Z,100732.50
2019-04-14T11:08:33.716Z,100732.80
2019-04-14T11:09:37.915Z,100728.50
2019-04-14T11:10:42.191Z,100734.03
2019-04-14T11:11:46.592Z,100722.42
2019-04-14T11:12:52.435Z,100731.48
2019-04-14T11:13:56.626Z,100736.02
2019-04-14T11:15:00.862Z,100728.70
2019-04-14T11:16:05.235Z,100729.54
2019-04-14T11:17:09.904Z,100724.48
2019-04-14T11:18:14.103Z,100722.38
2019-04-14T11:19:19.267Z,100720.28
2019-04-14T11:20:23.462Z,100719.02
2019-04-14T11:21:41.674Z,100718.11
2019-04-14T11:22:35.329Z,100720.88
2019-04-14T11:23:39.533Z,100723.05
2019-04-14T11:24:43.758Z,100725.88
2019-04-14T11:25:47.991Z,100730.33
2019-04-14T11:26:52.197Z,100719.09
2019-04-14T11:27:56.432Z,100725.30
2019-04-14T11:29:00.699Z,100723.36
2019-04-14T11:30:08.431Z,100720.88
2019-04-14T11:31:13.714Z,100718.67
2019-04-14T11:32:34.020Z,100726.03
2019-04-14T11:33:56.277Z,100724.59
2019-04-14T11:35:17.850Z,100721.19
2019-04-14T11:36:26.473Z,100722.86
2019-04-14T11:37:48.767Z,100726.79
2019-04-14T11:38:54.635Z,100724.58
2019-04-14T11:39:58.856Z,100716.95
2019-04-14T11:41:04.712Z,100719.73
2019-04-14T11:42:08.912Z,100720.00
2019-04-14T11:43:13.094Z,100719.73
2019-04-14T11:44:17.319Z,100722.55
2019-04-14T11:45:22.689Z,100718.10
2019-04-14T11:46:27.034Z,100720.31
2019-04-14T11:47:31.334Z,100724.27
2019-04-14T11:48:35.531Z,100725.98
2019-04-14T11:49:39.845Z,100723.74
2019-04-14T11:50:44.043Z,100717.75
2019-04-14T11:51:55.156Z,100723.66
2019-04-14T11:52:55.179Z,100729.13
2019-04-14T11:53:59.920Z,100722.03
2019-04-14T11:55:05.423Z,100719.73
2019-04-14T11:56:09.690Z,100717.66
2019-04-14T11:57:13.882Z,100731.71
2019-04-14T11:58:18.109Z,100729.42
2019-04-14T11:59:23.944Z,100727.41
2019-04-14T12:00:45.972Z,100724.31
2019-04-14T12:01:51.814Z,100724.31
2019-04-14T12:03:12.980Z,100729.91
2019-04-14T12:04:26.040Z,100731.59
2019-04-14T12:05:41.140Z,100734.45
2019-04-14T12:06:47.152Z,100731.98
2019-04-14T12:08:08.040Z,100734.05
2019-04-14T12:09:16.972Z,100735.52
2019-04-14T12:10:22.026Z,100734.19
2019-04-14T12:11:26.296Z,100733.88
2019-04-14T12:12:30.696Z,100736.44
2019-04-14T12:13:34.919Z,100731.33
2019-04-14T12:14:39.196Z,100733.05
2019-04-14T12:15:43.414Z,100734.27
2019-04-14T12:16:47.760Z,100732.28
2019-04-14T12:17:51.975Z,100737.92
2019-04-14T12:18:56.344Z,100738.80
2019-04-14T12:20:02.272Z,100728.02
2019-04-14T12:21:06.490Z,100734.19
2019-04-14T12:22:10.698Z,100738.69
2019-04-14T12:23:16.119Z,100738.34
2019-04-14T12:24:20.555Z,100735.45
2019-04-14T12:25:24.848Z,100736.02
2019-04-14T12:26:29.239Z,100734.27
2019-04-14T12:27:33.709Z,100735.59
2019-04-14T12:28:38.331Z,100735.29
2019-04-14T12:29:43.309Z,100737.27
2019-04-14T12:30:48.864Z,100739.25
2019-04-14T12:31:53.219Z,100734.19
2019-04-14T12:32:57.425Z,100739.52
2019-04-14T12:34:01.655Z,100740.32
2019-04-14T12:35:06.003Z,100735.06
2019-04-14T12:36:12.041Z,100739.11
2019-04-14T12:37:16.301Z,100733.78
2019-04-14T12:38:20.494Z,100735.52
2019-04-14T12:39:26.328Z,100737.20
2019-04-14T12:40:30.517Z,100733.92
2019-04-14T12:41:42.521Z,100733.31
2019-04-14T12:43:00.185Z,100734.99
2019-04-14T12:44:15.541Z,100729.02
2019-04-14T12:45:33.838Z,100721.92
2019-04-14T12:46:45.708Z,100728.97
2019-04-14T12:48:00.473Z,100731.75
2019-04-14T12:49:09.227Z,100730.88
2019-04-14T12:50:20.722Z,100731.18
2019-04-14T12:51:30.988Z,100730.95
2019-04-14T12:52:35.301Z,100725.05
2019-04-14T12:53:39.498Z,100726.72
2019-04-14T12:54:43.835Z,100726.42
2019-04-14T12:55:48.070Z,100722.19
2019-04-14T12:56:52.343Z,100726.19
2019-04-14T12:58:04.288Z,100726.19
2019-04-14T12:59:10.139Z,100725.31
2019-04-14T13:00:15.969Z,100734.61
2019-04-14T13:01:21.881Z,100730.03
2019-04-14T13:02:30.463Z,100731.75